Time;durP1;ratioP1;P1;durP2;ratioP2;P2;SDS_P1;SDS_P2;PMS_P1;PMS_P2;Temp;Humidity;BMP_temperature;BMP_pressure;BME280_temperature;BME280_humidity;BME280_pressure;Samples;Min_cycle;Max_cycle;Signal;HPM_P1;HPM_P2
2023/08/21 00:00:10;;;;;;;6.83;6.73;;;19.10;99.90;;;;;;4981265;28;20841;-66
2023/08/21 00:02:38;;;;;;;7.17;7.07;;;19.00;99.90;;;;;;4991850;28;20458;-66
2023/08/21 00:05:06;;;;;;;7.00;6.90;;;19.00;99.90;;;;;;4987063;28;20814;-67
2023/08/21 00:07:33;;;;;;;6.87;6.77;;;19.00;99.90;;;;;;4985633;28;20459;-66
2023/08/21 00:10:00;;;;;;;7.27;7.17;;;18.90;99.90;;;;;;4987313;28;20816;-66
2023/08/21 00:12:26;;;;;;;7.20;7.10;;;18.90;99.90;;;;;;4982703;28;20529;-65
2023/08/21 00:14:55;;;;;;;7.77;7.67;;;18.80;99.90;;;;;;4986867;28;20463;-66
2023/08/21 00:17:22;;;;;;;7.50;7.40;;;18.80;99.90;;;;;;4984274;28;20486;-67
2023/08/21 00:19:49;;;;;;;6.90;6.80;;;18.70;99.90;;;;;;4988349;28;20474;-66
2023/08/21 00:22:16;;;;;;;7.00;6.90;;;18.70;99.90;;;;;;4988718;28;20454;-66
2023/08/21 00:24:43;;;;;;;6.80;6.70;;;18.60;99.90;;;;;;4994386;28;20474;-66
2023/08/21 00:27:10;;;;;;;6.80;6.70;;;18.60;99.90;;;;;;4985501;28;20465;-66
2023/08/21 00:29:37;;;;;;;6.67;6.57;;;18.60;99.90;;;;;;4986910;28;20823;-67
2023/08/21 00:32:06;;;;;;;6.10;6.00;;;18.50;99.90;;;;;;4979463;28;20863;-66
2023/08/21 00:34:33;;;;;;;6.00;5.90;;;18.50;99.90;;;;;;4986795;28;20459;-66
2023/08/21 00:37:00;;;;;;;5.30;5.20;;;18.50;99.90;;;;;;4985015;28;20469;-66
2023/08/21 00:39:28;;;;;;;6.10;6.00;;;18.40;99.90;;;;;;4991857;28;20897;-66
2023/08/21 00:41:54;;;;;;;5.90;5.80;;;18.30;99.90;;;;;;4987776;28;20469;-65
2023/08/21 00:44:21;;;;;;;5.70;5.60;;;18.20;99.90;;;;;;4981495;28;20470;-66
2023/08/21 00:46:48;;;;;;;5.70;5.60;;;18.20;99.90;;;;;;4982056;28;20466;-66
2023/08/21 00:49:17;;;;;;;5.30;5.20;;;18.10;99.90;;;;;;4981147;28;20478;-65
2023/08/21 00:51:45;;;;;;;5.73;5.63;;;18.10;99.90;;;;;;4983253;28;20896;-66
2023/08/21 00:54:12;;;;;;;5.10;5.10;;;18.10;99.90;;;;;;4984286;28;21075;-65
2023/08/21 00:56:39;;;;;;;5.20;5.10;;;18.00;99.90;;;;;;4983505;28;20471;-65
2023/08/21 00:59:06;;;;;;;4.70;4.70;;;18.00;99.90;;;;;;4989987;28;20446;-68
2023/08/21 01:01:34;;;;;;;5.00;5.00;;;17.90;99.90;;;;;;4982685;28;20592;-67
2023/08/21 01:04:01;;;;;;;5.27;5.17;;;17.90;99.90;;;;;;4987898;28;20466;-67
2023/08/21 01:06:31;;;;;;;5.30;5.20;;;17.90;99.90;;;;;;4994271;28;20502;-67
2023/08/21 01:09:01;;;;;;;4.90;4.90;;;17.90;99.90;;;;;;4984609;28;20473;-65
2023/08/21 01:11:34;;;;;;;4.90;4.90;;;18.00;99.90;;;;;;4980141;28;21019;-67
2023/08/21 01:14:08;;;;;;;4.90;4.90;;;18.00;99.90;;;;;;4980702;28;20895;-66
2023/08/21 01:16:37;;;;;;;5.00;5.00;;;17.90;99.90;;;;;;4987119;28;20473;-66
2023/08/21 01:19:10;;;;;;;4.80;4.80;;;17.90;99.90;;;;;;4983546;28;20466;-66
2023/08/21 01:21:38;;;;;;;5.00;5.00;;;17.90;99.90;;;;;;4986868;28;20880;-66
2023/08/21 01:24:06;;;;;;;5.30;5.20;;;17.90;99.90;;;;;;4985853;28;20494;-65
2023/08/21 01:26:33;;;;;;;5.00;5.00;;;18.00;99.90;;;;;;4981448;28;20466;-66
2023/08/21 01:29:00;;;;;;;5.37;5.27;;;18.10;99.90;;;;;;4994624;28;20454;-66
2023/08/21 01:31:32;;;;;;;5.20;5.13;;;18.10;99.90;;;;;;4982139;28;20589;-67
2023/08/21 01:34:01;;;;;;;5.30;5.20;;;18.10;99.90;;;;;;4980711;28;20459;-67
2023/08/21 01:36:28;;;;;;;5.47;5.37;;;18.10;99.90;;;;;;4986141;28;20453;-66
2023/08/21 01:38:56;;;;;;;5.37;5.27;;;18.10;99.90;;;;;;4986156;28;20454;-67
2023/08/21 01:41:26;;;;;;;5.53;5.43;;;18.10;99.90;;;;;;4976722;28;20545;-66
2023/08/21 01:43:53;;;;;;;5.43;5.33;;;18.10;99.90;;;;;;4985107;28;20461;-65
2023/08/21 01:46:21;;;;;;;5.63;5.53;;;18.10;99.90;;;;;;4990904;28;21008;-67
2023/08/21 01:48:47;;;;;;;5.60;5.50;;;18.20;99.90;;;;;;4985131;28;20502;-66
2023/08/21 01:51:14;;;;;;;5.77;5.67;;;18.20;99.90;;;;;;4983282;28;20497;-67
2023/08/21 01:53:41;;;;;;;5.97;5.87;;;18.20;99.90;;;;;;4983294;28;20486;-65
2023/08/21 01:56:08;;;;;;;5.50;5.40;;;18.20;99.90;;;;;;4989077;28;20457;-66
2023/08/21 01:58:36;;;;;;;5.70;5.60;;;18.20;99.90;;;;;;4990208;28;20466;-66
2023/08/21 02:01:04;;;;;;;6.10;6.00;;;18.20;99.90;;;;;;4987625;28;20474;-65
2023/08/21 02:03:31;;;;;;;6.00;5.90;;;18.20;99.90;;;;;;4986460;28;20494;-66
2023/08/21 02:05:58;;;;;;;6.10;6.00;;;18.30;99.90;;;;;;4977957;28;20727;-66
2023/08/21 02:08:31;;;;;;;6.13;6.03;;;18.30;99.90;;;;;;4983393;28;20907;-66
2023/08/21 02:10:58;;;;;;;6.20;6.10;;;18.30;99.90;;;;;;4984438;28;20704;-66
2023/08/21 02:13:25;;;;;;;6.53;6.43;;;18.30;99.90;;;;;;4986432;28;20533;-65
2023/08/21 02:15:53;;;;;;;6.60;6.50;;;18.30;99.90;;;;;;4982099;28;20855;-66
2023/08/21 02:18:20;;;;;;;6.50;6.40;;;18.30;99.90;;;;;;4982436;28;20473;-66
2023/08/21 02:20:48;;;;;;;6.80;6.70;;;18.40;99.90;;;;;;4991114;28;20463;-66
2023/08/21 02:23:16;;;;;;;7.60;7.50;;;18.30;99.90;;;;;;4985114;28;20517;-66
2023/08/21 02:25:43;;;;;;;7.03;6.93;;;18.30;99.90;;;;;;4981489;28;20953;-66
2023/08/21 02:28:10;;;;;;;7.30;7.20;;;18.40;99.90;;;;;;4989426;28;20467;-67
2023/08/21 02:30:40;;;;;;;7.53;7.43;;;18.40;99.90;;;;;;4992799;28;20455;-65
2023/08/21 02:33:08;;;;;;;7.10;7.00;;;18.40;99.90;;;;;;4983303;28;20494;-66
2023/08/21 02:35:35;;;;;;;7.17;7.07;;;18.40;99.90;;;;;;4997166;28;20462;-66
2023/08/21 02:38:02;;;;;;;7.67;7.57;;;18.30;99.90;;;;;;4989304;28;20454;-66
2023/08/21 02:40:29;;;;;;;7.27;7.17;;;18.30;99.90;;;;;;4986698;28;20458;-66
2023/08/21 02:42:56;;;;;;;7.00;6.90;;;18.30;99.90;;;;;;4982309;28;20467;-66
2023/08/21 02:45:23;;;;;;;7.37;7.27;;;18.20;99.90;;;;;;4983675;28;20462;-66
2023/08/21 02:47:50;;;;;;;7.30;7.20;;;18.20;99.90;;;;;;4987662;28;20525;-66
2023/08/21 02:50:18;;;;;;;7.30;7.20;;;18.30;99.90;;;;;;4991182;28;20462;-66
2023/08/21 02:52:45;;;;;;;7.70;7.60;;;18.30;99.90;;;;;;4987058;28;20521;-66
2023/08/21 02:55:11;;;;;;;7.90;7.80;;;18.30;99.90;;;;;;4990153;28;20482;-66
2023/08/21 02:57:38;;;;;;;7.63;7.53;;;18.30;99.90;;;;;;4980393;28;20564;-67
2023/08/21 03:00:08;;;;;;;7.70;7.60;;;18.30;99.90;;;;;;4988029;28;20469;-66
2023/08/21 03:02:35;;;;;;;8.00;7.90;;;18.30;99.90;;;;;;4986506;28;20555;-66
2023/08/21 03:05:01;;;;;;;8.10;8.00;;;18.30;99.90;;;;;;4994105;28;20466;-66
2023/08/21 03:07:29;;;;;;;8.00;7.90;;;18.20;99.90;;;;;;4992607;28;20466;-65
2023/08/21 03:09:56;;;;;;;8.23;8.13;;;18.20;99.90;;;;;;4982528;28;20458;-66
2023/08/21 03:12:23;;;;;;;8.20;8.10;;;18.20;99.90;;;;;;4990064;28;20513;-67
2023/08/21 03:14:50;;;;;;;7.87;7.77;;;18.20;99.90;;;;;;4983894;28;20479;-66
2023/08/21 03:17:17;;;;;;;7.90;7.80;;;18.10;99.90;;;;;;4989345;28;20484;-65
2023/08/21 03:19:45;;;;;;;7.80;7.70;;;18.10;99.90;;;;;;4989539;28;20470;-65
2023/08/21 03:22:12;;;;;;;7.90;7.80;;;18.10;99.90;;;;;;4984472;28;20875;-67
2023/08/21 03:24:40;;;;;;;7.77;7.67;;;18.10;99.90;;;;;;4987096;28;20546;-65
2023/08/21 03:27:07;;;;;;;7.27;7.17;;;18.20;99.90;;;;;;4989887;28;20446;-67
2023/08/21 03:29:34;;;;;;;7.00;6.90;;;18.20;99.90;;;;;;4987062;28;20458;-65
2023/08/21 03:32:02;;;;;;;7.37;7.27;;;18.10;99.90;;;;;;4980634;28;20493;-66
2023/08/21 03:34:29;;;;;;;7.37;7.27;;;18.00;99.90;;;;;;4985785;28;20474;-66
2023/08/21 03:36:56;;;;;;;7.40;7.30;;;18.10;99.90;;;;;;4982034;28;20459;-66
2023/08/21 03:39:23;;;;;;;7.17;7.07;;;18.00;99.90;;;;;;4984120;28;20513;-67
2023/08/21 03:41:51;;;;;;;6.93;6.83;;;18.00;99.90;;;;;;4988491;28;20463;-66
2023/08/21 03:44:18;;;;;;;7.40;7.30;;;18.00;99.90;;;;;;4983043;28;20458;-66
2023/08/21 03:46:45;;;;;;;7.00;6.90;;;18.00;99.90;;;;;;4987495;28;20455;-67
2023/08/21 03:49:12;;;;;;;7.23;7.13;;;18.00;99.90;;;;;;4983070;28;20551;-65
2023/08/21 03:51:39;;;;;;;7.30;7.20;;;18.00;99.90;;;;;;4992521;28;21006;-66
2023/08/21 03:54:06;;;;;;;7.13;7.03;;;18.00;99.90;;;;;;4988343;28;20478;-65
2023/08/21 03:56:33;;;;;;;7.50;7.40;;;18.00;99.90;;;;;;4985390;28;20958;-66
2023/08/21 03:59:01;;;;;;;7.13;7.03;;;18.00;99.90;;;;;;4988495;28;20787;-67
2023/08/21 04:01:28;;;;;;;6.80;6.70;;;18.00;99.90;;;;;;4986195;28;20470;-65
2023/08/21 04:03:54;;;;;;;7.03;6.93;;;18.00;99.90;;;;;;4979340;28;20474;-65
2023/08/21 04:06:22;;;;;;;6.60;6.50;;;18.00;99.90;;;;;;4989236;28;20447;-66
2023/08/21 04:08:49;;;;;;;6.30;6.20;;;18.00;99.90;;;;;;4985053;28;20835;-65
2023/08/21 04:11:16;;;;;;;6.43;6.33;;;17.90;99.90;;;;;;4987419;28;20575;-66
2023/08/21 04:13:43;;;;;;;6.80;6.70;;;17.90;99.90;;;;;;4987750;28;20490;-65
2023/08/21 04:16:12;;;;;;;6.10;6.00;;;17.80;99.90;;;;;;4986000;28;20486;-66
2023/08/21 04:18:39;;;;;;;5.83;5.73;;;17.80;99.90;;;;;;4986983;28;20458;-67
2023/08/21 04:21:06;;;;;;;6.17;6.07;;;17.70;99.90;;;;;;4979572;28;21347;-67
2023/08/21 04:23:33;;;;;;;6.07;5.97;;;17.70;99.90;;;;;;4987395;28;20465;-66
2023/08/21 04:26:05;;;;;;;6.20;6.10;;;17.70;99.90;;;;;;4984946;28;20981;-66
2023/08/21 04:28:33;;;;;;;6.43;6.33;;;17.60;99.90;;;;;;4987458;28;20463;-66
2023/08/21 04:31:00;;;;;;;6.10;6.00;;;17.60;99.90;;;;;;4987164;28;20471;-66
2023/08/21 04:33:29;;;;;;;6.70;6.60;;;17.60;99.90;;;;;;4985590;28;20490;-66
2023/08/21 04:35:56;;;;;;;6.33;6.23;;;17.60;99.90;;;;;;4983843;28;20466;-67
2023/08/21 04:38:23;;;;;;;7.30;7.20;;;17.60;99.90;;;;;;4986697;28;20462;-67
2023/08/21 04:40:50;;;;;;;7.40;7.30;;;17.60;99.90;;;;;;4983050;28;20463;-66
2023/08/21 04:43:17;;;;;;;6.97;6.87;;;17.60;99.90;;;;;;4982925;28;20478;-66
2023/08/21 04:45:49;;;;;;;7.30;7.20;;;17.60;99.90;;;;;;4988094;28;20513;-66
2023/08/21 04:48:15;;;;;;;7.10;7.00;;;17.60;99.90;;;;;;4981849;28;20545;-66
2023/08/21 04:50:44;;;;;;;7.07;6.97;;;17.70;99.90;;;;;;4986189;28;20957;-66
2023/08/21 04:53:10;;;;;;;7.10;7.00;;;17.70;99.90;;;;;;4981851;28;20505;-65
2023/08/21 04:55:40;;;;;;;5.83;5.73;;;17.70;99.90;;;;;;4987152;28;20450;-66
2023/08/21 04:58:06;;;;;;;5.90;5.80;;;17.70;99.90;;;;;;4979997;28;20455;-66
2023/08/21 05:00:34;;;;;;;5.60;5.50;;;17.70;99.90;;;;;;4983270;28;20885;-65
2023/08/21 05:03:00;;;;;;;5.30;5.20;;;17.60;99.90;;;;;;4978559;28;20470;-66
2023/08/21 05:05:27;;;;;;;5.47;5.37;;;17.60;99.90;;;;;;4991134;28;20455;-66
2023/08/21 05:07:55;;;;;;;5.67;5.57;;;17.60;99.90;;;;;;4988553;28;20470;-66
2023/08/21 05:10:22;;;;;;;5.10;5.10;;;17.60;99.90;;;;;;4979807;28;20486;-66
2023/08/21 05:12:49;;;;;;;5.00;5.00;;;17.60;99.90;;;;;;4983578;28;20561;-66
2023/08/21 05:15:16;;;;;;;5.57;5.47;;;17.60;99.90;;;;;;4990410;28;20478;-65
2023/08/21 05:17:43;;;;;;;4.40;4.40;;;17.60;99.90;;;;;;4982053;28;20886;-64
2023/08/21 05:20:13;;;;;;;4.27;4.27;;;17.50;99.90;;;;;;4981079;28;20470;-67
2023/08/21 05:22:40;;;;;;;4.37;4.37;;;17.50;99.90;;;;;;4985115;28;20472;-65
2023/08/21 05:25:09;;;;;;;4.07;4.07;;;17.40;99.90;;;;;;4977349;28;20846;-65
2023/08/21 05:27:36;;;;;;;3.83;3.83;;;17.40;99.90;;;;;;4983657;28;20472;-65
2023/08/21 05:30:05;;;;;;;3.77;3.77;;;17.40;99.90;;;;;;4980180;28;20485;-66
2023/08/21 05:32:32;;;;;;;3.80;3.80;;;17.50;99.90;;;;;;4987870;28;20904;-66
2023/08/21 05:34:59;;;;;;;3.73;3.73;;;17.60;99.90;;;;;;4981038;28;20482;-65
2023/08/21 05:37:26;;;;;;;3.47;3.47;;;17.70;99.90;;;;;;4975390;28;20463;-66
2023/08/21 05:39:54;;;;;;;3.30;3.30;;;17.80;99.90;;;;;;4977239;28;20558;-66
2023/08/21 05:42:22;;;;;;;3.53;3.53;;;17.70;99.90;;;;;;4989216;28;20871;-65
2023/08/21 05:44:48;;;;;;;3.93;3.93;;;17.80;99.90;;;;;;4987992;28;20876;-66
2023/08/21 05:47:16;;;;;;;3.40;3.40;;;17.80;99.90;;;;;;4979735;28;21146;-66
2023/08/21 05:49:44;;;;;;;3.30;3.30;;;17.90;99.90;;;;;;4982748;28;20470;-66
2023/08/21 05:52:11;;;;;;;3.97;3.97;;;17.90;99.90;;;;;;4986789;28;20459;-67
2023/08/21 05:54:38;;;;;;;3.93;3.93;;;18.00;99.90;;;;;;4980740;28;20578;-66
2023/08/21 05:57:05;;;;;;;4.07;4.07;;;18.10;99.90;;;;;;4985067;28;20950;-66
2023/08/21 05:59:34;;;;;;;3.60;3.60;;;18.20;99.90;;;;;;4991419;28;20458;-67
2023/08/21 06:02:01;;;;;;;4.10;4.10;;;18.30;99.90;;;;;;4985221;28;20465;-67
2023/08/21 06:04:29;;;;;;;3.70;3.70;;;18.40;99.90;;;;;;4988530;28;20958;-65
2023/08/21 06:06:56;;;;;;;4.60;4.60;;;18.40;99.90;;;;;;4989229;28;20497;-67
2023/08/21 06:09:23;;;;;;;4.60;4.60;;;18.50;99.90;;;;;;4990192;28;20458;-65
2023/08/21 06:11:50;;;;;;;4.50;4.50;;;18.60;99.90;;;;;;4990337;28;20979;-65
2023/08/21 06:14:17;;;;;;;4.93;4.93;;;18.70;99.90;;;;;;4990545;28;20501;-66
2023/08/21 06:16:45;;;;;;;5.30;5.20;;;18.70;99.90;;;;;;4988482;28;20497;-66
2023/08/21 06:19:12;;;;;;;5.30;5.20;;;18.70;99.90;;;;;;4981317;28;20471;-66
2023/08/21 06:21:39;;;;;;;5.80;5.70;;;18.80;99.90;;;;;;4981667;28;20490;-68
2023/08/21 06:24:05;;;;;;;5.60;5.50;;;18.80;99.90;;;;;;4983084;28;20772;-67
2023/08/21 06:26:32;;;;;;;5.80;5.70;;;19.00;99.90;;;;;;4991205;28;20463;-66
2023/08/21 06:28:59;;;;;;;5.80;5.70;;;19.10;99.90;;;;;;4991813;28;20972;-66
2023/08/21 06:31:26;;;;;;;6.70;6.60;;;19.30;99.90;;;;;;4984882;28;20468;-66
2023/08/21 06:33:54;;;;;;;6.47;6.37;;;19.40;99.90;;;;;;4984808;28;20658;-67
2023/08/21 06:36:21;;;;;;;7.37;7.27;;;19.50;99.90;;;;;;4983692;28;20497;-67
2023/08/21 06:38:48;;;;;;;7.37;7.27;;;19.60;99.90;;;;;;4985994;28;20454;-65
2023/08/21 06:41:15;;;;;;;9.00;8.87;;;19.70;99.90;;;;;;4991547;28;20465;-65
2023/08/21 06:43:42;;;;;;;9.20;9.00;;;19.70;99.90;;;;;;4994424;28;20465;-66
2023/08/21 06:46:10;;;;;;;9.03;8.90;;;19.80;99.90;;;;;;4983890;28;20470;-67
2023/08/21 06:48:39;;;;;;;9.00;8.90;;;19.90;99.90;;;;;;4983716;28;20458;-66
2023/08/21 06:51:08;;;;;;;9.00;8.90;;;20.00;99.90;;;;;;4987101;28;20513;-66
2023/08/21 06:53:35;;;;;;;8.80;8.70;;;20.10;99.90;;;;;;4985509;28;20490;-66
2023/08/21 06:56:03;;;;;;;9.30;9.10;;;20.10;99.90;;;;;;4990863;28;20476;-66
2023/08/21 06:58:29;;;;;;;9.73;9.53;;;20.20;99.90;;;;;;4984165;28;20559;-66
2023/08/21 07:00:56;;;;;;;8.83;8.73;;;20.20;99.90;;;;;;4971385;28;20482;-66
2023/08/21 07:03:24;;;;;;;9.27;9.07;;;20.20;99.90;;;;;;4975483;28;20462;-66
2023/08/21 07:05:56;;;;;;;9.57;9.37;;;20.20;99.90;;;;;;4979261;28;20502;-67
2023/08/21 07:08:25;;;;;;;9.60;9.40;;;20.30;99.90;;;;;;4981730;28;20960;-65
2023/08/21 07:10:53;;;;;;;10.00;9.80;;;20.40;99.90;;;;;;4987062;28;20473;-66
2023/08/21 07:13:20;;;;;;;10.40;10.20;;;20.50;99.90;;;;;;4986122;28;20486;-69
2023/08/21 07:15:47;;;;;;;10.10;9.90;;;20.50;99.90;;;;;;4985816;28;21196;-65
2023/08/21 07:18:14;;;;;;;10.67;10.47;;;20.60;99.90;;;;;;4982491;28;20463;-67
2023/08/21 07:20:41;;;;;;;10.40;10.20;;;20.70;99.90;;;;;;4988442;28;20469;-67
2023/08/21 07:23:08;;;;;;;10.73;10.53;;;20.80;99.90;;;;;;4986073;28;20482;-67
2023/08/21 07:25:37;;;;;;;10.30;10.10;;;20.90;99.90;;;;;;4980324;28;21000;-66
2023/08/21 07:28:05;;;;;;;10.47;10.27;;;21.10;99.90;;;;;;4986035;28;20463;-65
2023/08/21 07:30:32;;;;;;;10.60;10.40;;;21.20;99.90;;;;;;4985240;28;20480;-65
2023/08/21 07:32:59;;;;;;;10.03;9.83;;;21.30;99.90;;;;;;4986677;28;20463;-65
2023/08/21 07:35:26;;;;;;;10.47;10.27;;;21.40;99.90;;;;;;4987350;28;20458;-67
2023/08/21 07:37:52;;;;;;;10.57;10.37;;;21.50;99.90;;;;;;4977483;28;20602;-66
2023/08/21 07:40:19;;;;;;;10.70;10.50;;;21.60;99.90;;;;;;4987397;28;20489;-67
2023/08/21 07:42:47;;;;;;;11.30;11.00;;;21.60;99.90;;;;;;4982750;28;20463;-67
2023/08/21 07:45:15;;;;;;;11.43;11.13;;;21.70;99.90;;;;;;4985783;28;20530;-66
2023/08/21 07:47:42;;;;;;;11.20;10.90;;;21.70;99.90;;;;;;4982181;28;20569;-66
2023/08/21 07:50:09;;;;;;;11.70;11.40;;;21.80;99.90;;;;;;4983268;28;20454;-66
2023/08/21 07:52:37;;;;;;;11.37;11.07;;;22.00;99.90;;;;;;4980303;28;20817;-67
2023/08/21 07:55:04;;;;;;;11.50;11.20;;;22.10;99.90;;;;;;4985855;28;20850;-67
2023/08/21 07:57:31;;;;;;;11.50;11.20;;;22.10;99.90;;;;;;4979777;28;20825;-66
2023/08/21 07:59:59;;;;;;;11.40;11.10;;;22.40;99.90;;;;;;4986943;28;20462;-66
2023/08/21 08:02:26;;;;;;;12.10;11.80;;;22.80;99.90;;;;;;4984555;28;20463;-66
2023/08/21 08:04:53;;;;;;;11.70;11.40;;;23.00;99.90;;;;;;4973713;28;20566;-66
2023/08/21 08:07:20;;;;;;;12.00;11.70;;;23.30;99.90;;;;;;4983694;28;20543;-66
2023/08/21 08:09:47;;;;;;;12.03;11.73;;;23.40;99.90;;;;;;4986140;28;20462;-67
2023/08/21 08:12:15;;;;;;;12.23;11.93;;;23.40;99.90;;;;;;4985506;28;20834;-65
2023/08/21 08:14:42;;;;;;;12.30;12.00;;;23.50;99.90;;;;;;4982490;28;20534;-66
2023/08/21 08:17:10;;;;;;;11.90;11.60;;;23.50;99.90;;;;;;4987794;28;20934;-67
2023/08/21 08:19:37;;;;;;;12.10;11.80;;;23.50;99.90;;;;;;4973329;28;20473;-66
2023/08/21 08:22:03;;;;;;;12.03;11.73;;;23.50;99.90;;;;;;4985692;28;20988;-66
2023/08/21 08:24:31;;;;;;;11.60;11.30;;;23.60;99.90;;;;;;4982932;28;20486;-67
2023/08/21 08:26:58;;;;;;;11.70;11.40;;;23.50;99.90;;;;;;4979389;28;20459;-68
2023/08/21 08:29:26;;;;;;;11.80;11.50;;;23.50;99.90;;;;;;4980698;28;20462;-67
2023/08/21 08:31:53;;;;;;;11.60;11.30;;;23.60;99.90;;;;;;4986418;28;20910;-67
2023/08/21 08:34:22;;;;;;;11.50;11.20;;;23.70;99.90;;;;;;4981943;28;20496;-67
2023/08/21 08:36:49;;;;;;;11.90;11.60;;;23.80;99.90;;;;;;4986831;28;20450;-67
2023/08/21 08:39:17;;;;;;;11.87;11.57;;;24.00;99.90;;;;;;4986144;28;20455;-66
2023/08/21 08:41:52;;;;;;;11.80;11.50;;;24.10;99.90;;;;;;4981950;28;20883;-66
2023/08/21 08:44:20;;;;;;;12.03;11.73;;;24.10;99.90;;;;;;4985499;28;20964;-67
2023/08/21 08:46:47;;;;;;;11.90;11.60;;;24.30;99.90;;;;;;4988290;28;20459;-67
2023/08/21 08:49:14;;;;;;;12.23;11.93;;;24.40;99.90;;;;;;4984810;28;20466;-67
2023/08/21 08:51:44;;;;;;;11.87;11.57;;;24.60;99.90;;;;;;4979816;28;20467;-67
2023/08/21 08:54:12;;;;;;;12.30;12.00;;;24.80;99.90;;;;;;4984936;28;21021;-68
2023/08/21 08:56:39;;;;;;;12.47;12.17;;;25.20;99.90;;;;;;4973877;28;20667;-67
2023/08/21 08:59:08;;;;;;;12.53;12.23;;;25.70;99.90;;;;;;4977593;28;20470;-68
2023/08/21 09:01:35;;;;;;;13.43;13.03;;;26.20;99.90;;;;;;4985181;28;20477;-66
2023/08/21 09:04:02;;;;;;;13.10;12.70;;;26.80;99.90;;;;;;4984185;28;20458;-68
2023/08/21 09:06:30;;;;;;;13.20;12.80;;;27.20;99.90;;;;;;4978995;28;20450;-67
2023/08/21 09:08:58;;;;;;;13.90;13.50;;;27.40;99.90;;;;;;4976580;28;20455;-67
2023/08/21 09:11:25;;;;;;;14.00;13.60;;;27.50;99.90;;;;;;4980036;28;20474;-66
2023/08/21 09:13:55;;;;;;;14.07;13.67;;;27.70;99.90;;;;;;4974796;28;20964;-68
2023/08/21 09:16:22;;;;;;;13.93;13.53;;;28.20;99.90;;;;;;4986644;28;20651;-67
2023/08/21 09:18:51;;;;;;;14.60;14.10;;;28.20;99.90;;;;;;4984671;28;20961;-67
2023/08/21 09:21:18;;;;;;;14.27;13.83;;;28.70;99.90;;;;;;4985170;28;20810;-67
2023/08/21 09:23:46;;;;;;;13.90;13.50;;;29.00;99.90;;;;;;4981115;28;20470;-67
2023/08/21 09:26:20;;;;;;;14.03;13.63;;;28.60;99.90;;;;;;4982112;28;20577;-67
2023/08/21 09:28:46;;;;;;;14.23;13.83;;;29.00;99.90;;;;;;4983550;28;20937;-67
2023/08/21 09:31:13;;;;;;;14.30;13.90;;;29.00;99.90;;;;;;4984624;28;20474;-67
2023/08/21 09:33:41;;;;;;;13.87;13.47;;;29.30;99.90;;;;;;4984182;28;20498;-68
2023/08/21 09:36:11;;;;;;;13.97;13.57;;;29.60;99.90;;;;;;4986610;28;20497;-68
2023/08/21 09:38:41;;;;;;;13.50;13.10;;;29.80;99.90;;;;;;4985068;28;20498;-68
2023/08/21 09:41:08;;;;;;;14.13;13.73;;;29.70;99.90;;;;;;4977643;28;20815;-67
2023/08/21 09:43:43;;;;;;;15.10;14.60;;;29.70;99.90;;;;;;4989323;28;20973;-68
2023/08/21 09:46:15;;;;;;;13.97;13.57;;;30.30;99.90;;;;;;4985192;28;20501;-68
2023/08/21 09:48:42;;;;;;;14.83;14.33;;;30.60;99.90;;;;;;4986281;28;20461;-67
2023/08/21 09:51:10;;;;;;;14.60;14.10;;;30.50;99.90;;;;;;4982392;28;20830;-68
2023/08/21 09:53:36;;;;;;;14.77;14.27;;;30.10;99.90;;;;;;4982090;28;20505;-67
2023/08/21 09:56:04;;;;;;;14.00;13.60;;;30.30;99.90;;;;;;4982415;28;20549;-68
2023/08/21 09:58:31;;;;;;;13.80;13.40;;;30.60;99.90;;;;;;4989016;28;20478;-67
2023/08/21 10:01:00;;;;;;;13.80;13.40;;;30.10;99.90;;;;;;4982632;28;20473;-68
2023/08/21 10:03:28;;;;;;;13.73;13.33;;;29.60;99.90;;;;;;4974489;28;20467;-67
2023/08/21 10:05:58;;;;;;;13.53;13.13;;;30.00;99.90;;;;;;4987933;28;20462;-68
2023/08/21 10:08:27;;;;;;;13.80;13.40;;;30.10;99.90;;;;;;4981438;28;20466;-67
2023/08/21 10:10:55;;;;;;;14.00;13.60;;;30.40;99.90;;;;;;4984724;28;20562;-68
2023/08/21 10:13:22;;;;;;;14.50;14.10;;;30.30;99.90;;;;;;4983875;28;20490;-67
2023/08/21 10:15:48;;;;;;;14.93;14.43;;;30.60;99.90;;;;;;4988216;28;20495;-68
2023/08/21 10:18:21;;;;;;;14.20;13.80;;;31.10;99.90;;;;;;4987384;28;20461;-68
2023/08/21 10:20:48;;;;;;;15.20;14.70;;;31.80;99.90;;;;;;4989246;28;20462;-67
2023/08/21 10:23:26;;;;;;;14.80;14.30;;;32.60;99.90;;;;;;4989280;28;20462;-68
2023/08/21 10:25:56;;;;;;;14.13;13.73;;;32.20;99.90;;;;;;4984579;28;20469;-67
2023/08/21 10:28:24;;;;;;;14.20;13.80;;;31.30;99.90;;;;;;4982983;28;20506;-67
2023/08/21 10:30:51;;;;;;;14.30;13.90;;;31.70;99.90;;;;;;4988816;28;20482;-68
2023/08/21 10:33:19;;;;;;;14.70;14.27;;;31.90;99.90;;;;;;4987730;28;20467;-68
2023/08/21 10:35:47;;;;;;;14.50;14.10;;;31.80;99.90;;;;;;4982326;28;20831;-68
2023/08/21 10:38:16;;;;;;;14.10;13.70;;;31.90;99.90;;;;;;4987585;28;20470;-68
2023/08/21 10:41:08;;;;;;;13.40;13.00;;;32.00;99.90;;;;;;4985584;28;20851;-68
2023/08/21 10:43:38;;;;;;;14.80;14.40;;;32.10;99.90;;;;;;4983765;28;20485;-68
2023/08/21 10:46:06;;;;;;;13.60;13.20;;;31.90;99.90;;;;;;4977156;28;20474;-68
2023/08/21 10:48:33;;;;;;;13.57;13.17;;;31.50;99.90;;;;;;4981845;28;20973;-68
2023/08/21 10:51:04;;;;;;;14.37;13.97;;;31.50;99.90;;;;;;4975514;28;20471;-68
2023/08/21 10:53:31;;;;;;;14.10;13.70;;;31.00;99.90;;;;;;4981283;28;20471;-67
2023/08/21 10:55:59;;;;;;;13.83;13.43;;;31.00;99.90;;;;;;4984622;28;20532;-68
2023/08/21 10:58:26;;;;;;;13.10;12.80;;;31.20;99.90;;;;;;4986744;28;20446;-67
2023/08/21 11:00:59;;;;;;;14.57;14.17;;;31.70;99.90;;;;;;4979991;28;21013;-68
2023/08/21 11:03:26;;;;;;;14.90;14.50;;;31.10;99.90;;;;;;4972698;28;20782;-68
2023/08/21 11:06:06;;;;;;;12.73;12.43;;;31.00;99.90;;;;;;4986990;28;20463;-67
2023/08/21 11:08:33;;;;;;;14.00;13.60;;;31.60;99.90;;;;;;4983849;28;20517;-68
2023/08/21 11:11:01;;;;;;;14.40;14.00;;;31.50;99.90;;;;;;4987926;28;20546;-68
2023/08/21 11:13:28;;;;;;;14.80;14.40;;;31.80;99.90;;;;;;4976825;28;20467;-68
2023/08/21 11:16:01;;;;;;;14.60;14.20;;;32.50;99.90;;;;;;4986723;28;20509;-68
2023/08/21 11:18:32;;;;;;;15.20;14.70;;;32.90;99.90;;;;;;4982316;28;20477;-68
2023/08/21 11:21:08;;;;;;;14.73;14.33;;;33.10;99.90;;;;;;4982128;28;20469;-68
2023/08/21 11:23:35;;;;;;;15.10;14.60;;;32.80;99.90;;;;;;4985802;28;20765;-68
2023/08/21 11:26:02;;;;;;;13.97;13.57;;;32.80;99.90;;;;;;4981410;28;20556;-68
2023/08/21 11:28:30;;;;;;;14.93;14.43;;;32.80;99.90;;;;;;4983827;28;20926;-68
2023/08/21 11:30:57;;;;;;;14.67;14.27;;;33.20;99.90;;;;;;4976628;28;20462;-68
2023/08/21 11:33:25;;;;;;;14.10;13.70;;;32.50;99.90;;;;;;4981702;28;20466;-68
2023/08/21 11:35:53;;;;;;;13.77;13.37;;;32.90;99.90;;;;;;4985352;28;20614;-68
2023/08/21 11:38:23;;;;;;;14.43;14.03;;;33.10;99.90;;;;;;4986456;28;20458;-68
2023/08/21 11:40:55;;;;;;;14.40;14.00;;;33.30;99.90;;;;;;4978055;28;20462;-68
2023/08/21 11:43:22;;;;;;;14.47;14.07;;;33.60;99.90;;;;;;4987298;28;20481;-68
2023/08/21 11:45:50;;;;;;;14.40;14.00;;;33.80;99.90;;;;;;4978946;28;21129;-68
2023/08/21 11:48:20;;;;;;;14.40;14.00;;;33.40;99.90;;;;;;4985544;28;20513;-68
2023/08/21 11:50:49;;;;;;;14.23;13.83;;;32.70;99.90;;;;;;4986645;28;20485;-67
2023/08/21 11:53:16;;;;;;;15.70;15.20;;;32.90;99.90;;;;;;4977732;28;20609;-68
2023/08/21 11:55:44;;;;;;;14.90;14.40;;;32.30;99.90;;;;;;4979820;28;20502;-68
2023/08/21 11:58:12;;;;;;;14.50;14.10;;;32.50;99.90;;;;;;4986675;28;20485;-67
2023/08/21 12:00:41;;;;;;;14.80;14.40;;;33.30;99.90;;;;;;4986839;28;20454;-68
2023/08/21 12:03:09;;;;;;;14.40;14.00;;;34.10;99.90;;;;;;4987132;28;20462;-67
2023/08/21 12:05:44;;;;;;;13.33;12.93;;;34.20;99.30;;;;;;4965371;28;20469;-68
2023/08/21 12:08:11;;;;;;;13.87;13.47;;;33.90;99.30;;;;;;4985502;28;20961;-67
2023/08/21 12:10:38;;;;;;;13.47;13.07;;;34.80;98.50;;;;;;4985815;28;21052;-68
2023/08/21 12:13:06;;;;;;;13.63;13.23;;;34.90;98.40;;;;;;4979581;28;20502;-68
2023/08/21 12:15:32;;;;;;;13.90;13.50;;;35.40;97.60;;;;;;4985103;28;20494;-68
2023/08/21 12:18:00;;;;;;;13.20;12.90;;;35.30;97.30;;;;;;4978704;28;20867;-67
2023/08/21 12:20:29;;;;;;;13.57;13.17;;;35.10;96.90;;;;;;4983839;28;20477;-68
2023/08/21 12:22:57;;;;;;;13.00;12.70;;;35.60;96.00;;;;;;4986332;28;20454;-68
2023/08/21 12:25:24;;;;;;;13.40;13.00;;;35.80;96.50;;;;;;4982611;28;20471;-68
2023/08/21 12:27:51;;;;;;;14.40;14.00;;;36.10;95.80;;;;;;4984448;28;20459;-68
2023/08/21 12:30:19;;;;;;;13.97;13.57;;;36.20;95.60;;;;;;4979667;28;20469;-67
2023/08/21 12:32:47;;;;;;;13.93;13.53;;;35.90;94.10;;;;;;4984726;28;20512;-68
2023/08/21 12:35:14;;;;;;;13.90;13.50;;;35.90;94.90;;;;;;4987403;28;20506;-68
2023/08/21 12:37:42;;;;;;;13.50;13.10;;;35.90;94.40;;;;;;4987029;28;20463;-68
2023/08/21 12:40:10;;;;;;;14.03;13.63;;;34.60;94.70;;;;;;4986129;28;20982;-68